EDDE 210050Z 25006KT CAVOK 05/04 Q1025 EDDE 210020Z 22005KT CAVOK 05/03 Q1025 EDDE 202350Z 22005KT 190V270 CAVOK 05/03 Q1025 EDDE 202320Z 29003KT 280V340 CAVOK 06/03 Q1025 EDDE 202250Z 33002KT CAVOK 09/04 Q1025 EDDE 202220Z 34003KT CAVOK 09/04 Q1025 EDDE 202150Z 32002KT CAVOK 09/04 Q1025 EDDE 202120Z VRB02KT CAVOK 09/04 Q1025 EDDE 202050Z 08002KT CAVOK 10/04 Q1025 EDDE 202020Z 10002KT CAVOK 10/04 Q1024 EDDE 201950Z 10003KT CAVOK 10/04 Q1024 NOSIG EDDE 201920Z VRB01KT CAVOK 10/04 Q1024 NOSIG EDDE 201850Z 33002KT CAVOK 10/05 Q1024 NOSIG EDDE 201820Z VRB01KT 9999 BKN048 11/05 Q1023 NOSIG EDDE 201750Z VRB02KT 9999 BKN048 11/05 Q1023 NOSIG EDDE 201720Z 09003KT 9999 BKN046 11/05 Q1023 NOSIG EDDE 201650Z 07002KT 9999 BKN046 11/05 Q1023 NOSIG EDDE 201620Z 03005KT 9999 BKN045 12/05 Q1022 NOSIG EDDE 201550Z 03007KT 9999 FEW036 BKN046 12/05 Q1022 NOSIG EDDE 201520Z 04005KT 010V080 9999 FEW033 BKN046 12/05 Q1022 NOSIG EDDE 201450Z 04006KT 350V090 9999 FEW033 BKN046 12/04 Q1022 NOSIG EDDE 201420Z 03006KT 350V050 9999 FEW033 BKN045 12/04 Q1022 NOSIG EDDE 201350Z 03005KT 9999 FEW033 BKN045 12/04 Q1021 NOSIG EDDE 201320Z 02006KT 340V050 9999 SCT033 BKN045 12/05 Q1021 NOSIG EDDE 201250Z 03006KT 340V050 9999 SCT026 BKN040 12/05 Q1021 NOSIG EDDE 201220Z 05003KT 360V110 9999 SCT026 BKN040 12/05 Q1021 NOSIG EDDE 201150Z 05005KT 020V090 9999 SCT026 BKN040 12/05 Q1021 NOSIG EDDE 201120Z 05005KT 020V100 9999 FEW023 BKN040 11/05 Q1021 NOSIG EDDE 201050Z 05005KT 020V090 9999 FEW020 BKN040 11/06 Q1021 NOSIG EDDE 201020Z 03008KT 360V060 9999 FEW016 BKN043 11/07 Q1021 NOSIG EDDE 200950Z 03007KT 350V050 9999 FEW010 BKN043 11/07 Q1021 NOSIG EDDE 200920Z 05006KT 010V120 9999 FEW008 SCT011 BKN043 11/07 Q1021 NOSIG EDDE 200850Z 05005KT 030V110 9999 FEW008 BKN010 BKN043 10/08 Q1021 BECMG SCT010 EDDE 200820Z 04005KT 020V080 9999 FEW008 BKN010 BKN043 10/08 Q1021 BECMG SCT010 EDDE 200750Z 04005KT 9999 FEW009 BKN012 BKN043 10/08 Q1020 BECMG SCT010 EDDE 200720Z 01004KT 340V040 9999 FEW009 BKN043 10/08 Q1020 NOSIG EDDE 200650Z 01003KT 340V040 9999 FEW009 BKN043 09/08 Q1020 NOSIG EDDE 200620Z 36003KT 330V030 9999 FEW009 BKN043 09/08 Q1020 NOSIG EDDE 200550Z 36002KT 9999 FEW033 BKN043 09/07 Q1019 NOSIG EDDE 200520Z 34002KT 9999 FEW030 BKN040 09/07 Q1019 NOSIG EDDE 200450Z 30003KT 9999 FEW030 BKN040 08/07 Q1019 NOSIG EDDE 200420Z 27004KT 9999 BKN041 08/06 Q1019 NOSIG EDDE 200350Z 27003KT 9999 BKN041 08/06 Q1019 NOSIG EDDE 200320Z 28003KT 250V320 9999 OVC041 08/06 Q1019 EDDE 200250Z 21004KT 9999 OVC040 08/06 Q1019 EDDE 200220Z 20004KT 9999 BKN039 08/06 Q1018 EDDE 200150Z VRB01KT 9999 BKN039 09/06 Q1018 EDDE 200120Z VRB01KT 9999 SCT040 09/06 Q1018 EDDE 200050Z 35001KT 9999 FEW040 08/06 Q1018 EDDE 200020Z VRB02KT 9999 FEW039 08/06 Q1018 EDDE 192350Z VRB02KT 9999 SCT039 09/06 Q1018 EDDE 192320Z 07002KT 9999 BKN039 09/06 Q1018 EDDE 192250Z VRB02KT 9999 BKN040 09/06 Q1018 EDDE 192220Z 06003KT 9999 BKN037 10/06 Q1018 EDDE 192150Z 06002KT 9999 BKN038 10/06 Q1018 EDDE 192120Z VRB02KT 9999 BKN039 10/06 Q1018 EDDE 192050Z 05003KT 9999 BKN039 10/06 Q1018 EDDE 192020Z VRB02KT 9999 BKN038 10/06 Q1018 EDDE 191950Z VRB02KT 9999 BKN035 10/06 Q1018 NOSIG EDDE 191920Z VRB02KT 9999 OVC035 10/06 Q1018 NOSIG EDDE 191850Z 09005KT 060V130 9999 OVC033 10/05 Q1018 NOSIG EDDE 191820Z 07004KT 020V120 9999 OVC033 10/05 Q1018 NOSIG EDDE 191750Z 08005KT 9999 BKN030 10/06 Q1018 NOSIG EDDE 191720Z 08006KT 9999 BKN028 10/05 Q1017 NOSIG EDDE 191650Z 07005KT 040V110 9999 FEW023 BKN030 11/05 Q1017 NOSIG EDDE 191620Z 07005KT 040V100 9999 FEW021 BKN028 11/05 Q1017 NOSIG EDDE 191550Z 06006KT 030V100 9999 FEW021 BKN028 11/05 Q1017 NOSIG EDDE 191520Z 06007KT 9999 FEW021 BKN027 11/05 Q1017 NOSIG EDDE 191450Z 07006KT 040V100 9999 FEW021 BKN027 11/05 Q1017 NOSIG EDDE 191420Z 07008KT 040V110 9999 SCT020 BKN025 11/06 Q1017 NOSIG EDDE 191350Z 06006KT 020V100 9999 FEW018 BKN023 11/06 Q1017 NOSIG EDDE 191320Z 07008KT 030V100 9999 FEW018 BKN023 11/06 Q1017 NOSIG

METAR Messwerte

Zurück zur Übersicht

Ort
m ü. NN
Zeit Temperatur Taupunkt Rel.
Luftfeuchte
Luftdruck:
Altimeter
NN
Station
Wind in Beaufort
(Knoten)
Sichtweite
(Meter)
Wolken
(Meter über Grund)
Wettererscheinung
Erfurt-Bindersleben
323
Di 21.09. 02:505493 %1025
1027
986
WSW 2 (6)>= 10000Nicht signifikant 
Erfurt-Bindersleben
323
Di 21.09. 02:205387 %1025
1027
986
SW 2 (5)>= 10000Nicht signifikant 
Erfurt-Bindersleben
323
Di 21.09. 01:505387 %1025
1027
986
SW 2 (5)
S - W
>= 10000Nicht signifikant 
Erfurt-Bindersleben
323
Di 21.09. 01:206381 %1025
1026
986
WNW 2 (3)
W - NNW
>= 10000Nicht signifikant 
Erfurt-Bindersleben
323
Di 21.09. 00:509471 %1025
1026
986
NNW 1 (2)>= 10000Nicht signifikant 
Erfurt-Bindersleben
323
Di 21.09. 00:209471 %1025
1026
986
NNW 2 (3)>= 10000Nicht signifikant 
Erfurt-Bindersleben
323
Mo 20.09. 23:509471 %1025
1026
986
NW 1 (2)>= 10000Nicht signifikant 
Erfurt-Bindersleben
323
Mo 20.09. 23:209471 %1025
1026
986
Uml 1 (2)>= 10000Nicht signifikant 
Erfurt-Bindersleben
323
Mo 20.09. 22:5010466 %1025
1026
986
O 1 (2)>= 10000Nicht signifikant 
Erfurt-Bindersleben
323
Mo 20.09. 22:2010466 %1024
1025
985
O 1 (2)>= 10000Nicht signifikant 
Erfurt-Bindersleben
323
Mo 20.09. 21:5010466 %1024
1025
985
O 2 (3)>= 10000Nicht signifikant 
Erfurt-Bindersleben
323
Mo 20.09. 21:2010466 %1024
1025
985
Uml 1 (1)>= 10000Nicht signifikant 
Erfurt-Bindersleben
323
Mo 20.09. 20:5010571 %1024
1025
985
NNW 1 (2)>= 10000Nicht signifikant 
Erfurt-Bindersleben
323
Mo 20.09. 20:2011566 %1023
1024
984
Uml 1 (1)>= 10000Stark bewölkt (1500) 
Erfurt-Bindersleben
323
Mo 20.09. 19:5011566 %1023
1024
984
Uml 1 (2)>= 10000Stark bewölkt (1500) 
Erfurt-Bindersleben
323
Mo 20.09. 19:2011566 %1023
1024
984
O 2 (3)>= 10000Stark bewölkt (1400) 
Erfurt-Bindersleben
323
Mo 20.09. 18:5011566 %1023
1024
984
ONO 1 (2)>= 10000Stark bewölkt (1400) 
Erfurt-Bindersleben
323
Mo 20.09. 18:2012562 %1022
1022
984
NNO 2 (5)>= 10000Stark bewölkt (1400) 
Erfurt-Bindersleben
323
Mo 20.09. 17:5012562 %1022
1022
984
NNO 3 (7)>= 10000Stark bewölkt (1400)
Leicht bewölkt (1100)
 
Erfurt-Bindersleben
323
Mo 20.09. 17:2012562 %1022
1022
984
NO 2 (5)
N - O
>= 10000Stark bewölkt (1400)
Leicht bewölkt (1000)
 
Erfurt-Bindersleben
323
Mo 20.09. 16:5012458 %1022
1022
984
NO 2 (6)
N - O
>= 10000Stark bewölkt (1400)
Leicht bewölkt (1000)
 
Erfurt-Bindersleben
323
Mo 20.09. 16:2012458 %1022
1022
984
NNO 2 (6)
N - NO
>= 10000Stark bewölkt (1400)
Leicht bewölkt (1000)
 
Erfurt-Bindersleben
323
Mo 20.09. 15:5012458 %1021
1021
983
NNO 2 (5)>= 10000Stark bewölkt (1400)
Leicht bewölkt (1000)
 
Erfurt-Bindersleben
323
Mo 20.09. 15:2012562 %1021
1021
983
NNO 2 (6)
NNW - NO
>= 10000Stark bewölkt (1400)
Wolkig (1000)
 
Erfurt-Bindersleben
323
Mo 20.09. 14:5012562 %1021
1021
983
NNO 2 (6)
NNW - NO
>= 10000Stark bewölkt (1200)
Wolkig (790)
 
Erfurt-Bindersleben
323
Mo 20.09. 14:2012562 %1021
1021
983
NO 2 (3)
N - OSO
>= 10000Stark bewölkt (1200)
Wolkig (790)
 
Erfurt-Bindersleben
323
Mo 20.09. 13:5012562 %1021
1021
983
NO 2 (5)
NNO - O
>= 10000Stark bewölkt (1200)
Wolkig (790)
 
Erfurt-Bindersleben
323
Mo 20.09. 13:2011566 %1021
1022
983
NO 2 (5)
NNO - O
>= 10000Stark bewölkt (1200)
Leicht bewölkt (700)
 
Erfurt-Bindersleben
323
Mo 20.09. 12:5011671 %1021
1022
983
NO 2 (5)
NNO - O
>= 10000Stark bewölkt (1200)
Leicht bewölkt (610)
 
Erfurt-Bindersleben
323
Mo 20.09. 12:2011776 %1021
1022
983
NNO 3 (8)
N - ONO
>= 10000Stark bewölkt (1300)
Leicht bewölkt (490)
 
Erfurt-Bindersleben
323
Mo 20.09. 11:5011776 %1021
1022
983
NNO 3 (7)
N - NO
>= 10000Stark bewölkt (1300)
Leicht bewölkt (300)
 
Erfurt-Bindersleben
323
Mo 20.09. 11:2011776 %1021
1022
983
NO 2 (6)
N - OSO
>= 10000Stark bewölkt (1300)
Wolkig (340)
Leicht bewölkt (240)
 
Erfurt-Bindersleben
323
Mo 20.09. 10:5010887 %1021
1022
983
NO 2 (5)
NNO - OSO
>= 10000Stark bewölkt (1300)
Stark bewölkt (300)
Leicht bewölkt (240)
 
Erfurt-Bindersleben
323
Mo 20.09. 10:2010887 %1021
1022
983
NO 2 (5)
NNO - O
>= 10000Stark bewölkt (1300)
Stark bewölkt (300)
Leicht bewölkt (240)
 
Erfurt-Bindersleben
323
Mo 20.09. 09:5010887 %1020
1021
982
NO 2 (5)>= 10000Stark bewölkt (1300)
Stark bewölkt (370)
Leicht bewölkt (270)
 
Erfurt-Bindersleben
323
Mo 20.09. 09:2010887 %1020
1021
982
N 2 (4)
NNW - NO
>= 10000Stark bewölkt (1300)
Leicht bewölkt (270)
 
Erfurt-Bindersleben
323
Mo 20.09. 08:509893 %1020
1021
982
N 2 (3)
NNW - NO
>= 10000Stark bewölkt (1300)
Leicht bewölkt (270)
 
Erfurt-Bindersleben
323
Mo 20.09. 08:209893 %1020
1021
982
N 2 (3)
NNW - NNO
>= 10000Stark bewölkt (1300)
Leicht bewölkt (270)
 
Erfurt-Bindersleben
323
Mo 20.09. 07:509787 %1019
1020
981
N 1 (2)>= 10000Stark bewölkt (1300)
Leicht bewölkt (1000)
 
Erfurt-Bindersleben
323
Mo 20.09. 07:209787 %1019
1020
981
NNW 1 (2)>= 10000Stark bewölkt (1200)
Leicht bewölkt (910)
 
Erfurt-Bindersleben
323
Mo 20.09. 06:508793 %1019
1020
981
WNW 2 (3)>= 10000Stark bewölkt (1200)
Leicht bewölkt (910)
 
Erfurt-Bindersleben
323
Mo 20.09. 06:208687 %1019
1020
981
W 2 (4)>= 10000Stark bewölkt (1200) 
Erfurt-Bindersleben
323
Mo 20.09. 05:508687 %1019
1020
981
W 2 (3)>= 10000Stark bewölkt (1200) 
Erfurt-Bindersleben
323
Mo 20.09. 05:208687 %1019
1020
981
W 2 (3)
WSW - NW
>= 10000Bedeckt (1200) 
Erfurt-Bindersleben
323
Mo 20.09. 04:508687 %1019
1020
981
SSW 2 (4)>= 10000Bedeckt (1200) 
Erfurt-Bindersleben
323
Mo 20.09. 04:208687 %1018
1019
980
SSW 2 (4)>= 10000Stark bewölkt (1200) 
Erfurt-Bindersleben
323
Mo 20.09. 03:509681 %1018
1019
980
Uml 1 (1)>= 10000Stark bewölkt (1200) 
Erfurt-Bindersleben
323
Mo 20.09. 03:209681 %1018
1019
980
Uml 1 (1)>= 10000Wolkig (1200) 
Erfurt-Bindersleben
323
Mo 20.09. 02:508687 %1018
1019
980
N 1 (1)>= 10000Leicht bewölkt (1200) 
Erfurt-Bindersleben
323
Mo 20.09. 02:208687 %1018
1019
980
Uml 1 (2)>= 10000Leicht bewölkt (1200) 
Erfurt-Bindersleben
323
Mo 20.09. 01:509681 %1018
1019
980
Uml 1 (2)>= 10000Wolkig (1200) 
Erfurt-Bindersleben
323
Mo 20.09. 01:209681 %1018
1019
980
ONO 1 (2)>= 10000Stark bewölkt (1200) 
Erfurt-Bindersleben
323
Mo 20.09. 00:509681 %1018
1019
980
Uml 1 (2)>= 10000Stark bewölkt (1200) 
Erfurt-Bindersleben
323
Mo 20.09. 00:2010676 %1018
1019
980
ONO 2 (3)>= 10000Stark bewölkt (1100) 
Erfurt-Bindersleben
323
So 19.09. 23:5010676 %1018
1019
980
ONO 1 (2)>= 10000Stark bewölkt (1200) 
Erfurt-Bindersleben
323
So 19.09. 23:2010676 %1018
1019
980
Uml 1 (2)>= 10000Stark bewölkt (1200) 
Erfurt-Bindersleben
323
So 19.09. 22:5010676 %1018
1019
980
NO 2 (3)>= 10000Stark bewölkt (1200) 
Erfurt-Bindersleben
323
So 19.09. 22:2010676 %1018
1019
980
Uml 1 (2)>= 10000Stark bewölkt (1200) 
Erfurt-Bindersleben
323
So 19.09. 21:5010676 %1018
1019
980
Uml 1 (2)>= 10000Stark bewölkt (1100) 
Erfurt-Bindersleben
323
So 19.09. 21:2010676 %1018
1019
980
Uml 1 (2)>= 10000Bedeckt (1100) 
Erfurt-Bindersleben
323
So 19.09. 20:5010571 %1018
1019
980
O 2 (5)
ONO - SO
>= 10000Bedeckt (1000) 
Erfurt-Bindersleben
323
So 19.09. 20:2010571 %1018
1019
980
ONO 2 (4)
NNO - OSO
>= 10000Bedeckt (1000) 
Erfurt-Bindersleben
323
So 19.09. 19:5010676 %1018
1019
980
O 2 (5)>= 10000Stark bewölkt (910) 
Erfurt-Bindersleben
323
So 19.09. 19:2010571 %1017
1018
979
O 2 (6)>= 10000Stark bewölkt (850) 
Erfurt-Bindersleben
323
So 19.09. 18:5011566 %1017
1018
979
ONO 2 (5)
NO - OSO
>= 10000Stark bewölkt (910)
Leicht bewölkt (700)
 
Erfurt-Bindersleben
323
So 19.09. 18:2011566 %1017
1018
979
ONO 2 (5)
NO - O
>= 10000Stark bewölkt (850)
Leicht bewölkt (640)
 
Erfurt-Bindersleben
323
So 19.09. 17:5011566 %1017
1018
979
ONO 2 (6)
NNO - O
>= 10000Stark bewölkt (850)
Leicht bewölkt (640)
 
Erfurt-Bindersleben
323
So 19.09. 17:2011566 %1017
1018
979
ONO 3 (7)>= 10000Stark bewölkt (820)
Leicht bewölkt (640)
 
Erfurt-Bindersleben
323
So 19.09. 16:5011566 %1017
1018
979
ONO 2 (6)
NO - O
>= 10000Stark bewölkt (820)
Leicht bewölkt (640)
 
Erfurt-Bindersleben
323
So 19.09. 16:2011671 %1017
1018
979
ONO 3 (8)
NO - OSO
>= 10000Stark bewölkt (760)
Wolkig (610)
 
Erfurt-Bindersleben
323
So 19.09. 15:5011671 %1017
1018
979
ONO 2 (6)
NNO - O
>= 10000Stark bewölkt (700)
Leicht bewölkt (550)
 
Erfurt-Bindersleben
323
So 19.09. 15:2011671 %1017
1018
979
ONO 3 (8)
NNO - O
>= 10000Stark bewölkt (700)
Leicht bewölkt (550)
 

Altimeter: Einstellung am Altimeter (Höhenmesser), die Höhe 0 muss auf diesen Luftdruckwert zeigen, damit das Gerät die Stationshöhe richtig anzeigt.

NN: Luftdruck reduziert auf "Normal Null", auf Meereshöhe, dieser von der Temperatur abhängige Wert wird bisweilen unkorrekt einfach als "Luftdruck" bezeichnet. Eigentlich nur eine fiktive Größe, die es erlaubt, Stationen auf unterschiedlichen Höhen miteinander zu vergleichen.

Station: Realer Luftdruck an der Station.